Time;durP1;ratioP1;P1;durP2;ratioP2;P2;SDS_P1;SDS_P2;PMS_P1;PMS_P2;Temp;Humidity;BMP_temperature;BMP_pressure;BME280_temperature;BME280_humidity;BME280_pressure;Samples;Min_cycle;Max_cycle;Signal;HPM_P1;HPM_P2
2023/08/24 00:02:06;;;;;;;;;;;;;;;;;;4982449;28;20400;-92
2023/08/24 00:04:32;;;;;;;;;;;;;;;;;;5008504;28;19930;-93
2023/08/24 00:06:58;;;;;;;;;;;;;;;;;;5008331;28;19979;-92
2023/08/24 00:09:24;;;;;;;;;;;;;;;;;;4991908;28;20340;-93
2023/08/24 00:11:50;;;;;;;;;;;;;;;;;;5006415;28;19932;-91
2023/08/24 00:14:16;;;;;;;;;;;;;;;;;;4987178;28;20293;-92
2023/08/24 00:16:42;;;;;;;;;;;;;;;;;;4985364;28;19953;-92
2023/08/24 00:19:08;;;;;;;;;;;;;;;;;;4986077;28;20817;-93
2023/08/24 00:21:34;;;;;;;;;;;;;;;;;;4987883;28;19936;-92
2023/08/24 00:24:00;;;;;;;;;;;;;;;;;;4988951;28;19943;-92
2023/08/24 00:26:25;;;;;;;;;;;;;;;;;;5002022;28;20395;-91
2023/08/24 00:28:51;;;;;;;;;;;;;;;;;;5002043;28;19930;-91
2023/08/24 00:31:18;;;;;;;;;;;;;;;;;;5002472;28;20072;-92
2023/08/24 00:33:44;;;;;;;;;;;;;;;;;;4987247;28;20397;-92
2023/08/24 00:36:10;;;;;;;;;;;;;;;;;;5002766;28;20052;-93
2023/08/24 00:38:36;;;;;;;;;;;;;;;;;;5004130;28;20028;-92
2023/08/24 00:41:02;;;;;;;;;;;;;;;;;;4985300;28;20532;-92
2023/08/24 00:43:28;;;;;;;;;;;;;;;;;;4980834;28;20228;-93
2023/08/24 00:45:57;;;;;;;;;;;;;;;;;;4999889;28;20409;-93
2023/08/24 00:48:25;;;;;;;;;;;;;;;;;;5000643;28;19936;-92
2023/08/24 00:50:51;;;;;;;;;;;;;;;;;;5005293;28;19935;-91
2023/08/24 00:53:18;;;;;;;;;;;;;;;;;;5006962;28;19929;-92
2023/08/24 00:55:44;;;;;;;;;;;;;;;;;;4987405;28;19972;-93
2023/08/24 00:58:10;;;;;;;;;;;;;;;;;;5005667;28;20016;-92
2023/08/24 01:00:39;;;;;;;;;;;;;;;;;;4987105;28;19933;-91
2023/08/24 01:03:05;;;;;;;;;;;;;;;;;;4997961;28;19995;-91
2023/08/24 01:05:31;;;;;;;;;;;;;;;;;;4987199;28;19929;-92
2023/08/24 01:07:57;;;;;;;;;;;;;;;;;;4988327;28;19925;-91
2023/08/24 01:10:23;;;;;;;;;;;;;;;;;;5002840;28;20407;-92
2023/08/24 01:12:49;;;;;;;;;;;;;;;;;;5006299;28;19929;-91
2023/08/24 01:15:15;;;;;;;;;;;;;;;;;;4999446;28;19928;-91
2023/08/24 01:17:41;;;;;;;;;;;;;;;;;;5004101;28;19925;-92
2023/08/24 01:20:07;;;;;;;;;;;;;;;;;;4988374;28;20404;-92
2023/08/24 01:22:33;;;;;;;;;;;;;;;;;;4988382;28;19929;-91
2023/08/24 01:24:59;;;;;;;;;;;;;;;;;;4990380;28;19936;-92
2023/08/24 01:27:25;;;;;;;;;;;;;;;;;;4988981;28;19929;-93
2023/08/24 01:29:52;;;;;;;;;;;;;;;;;;4982082;28;19932;-92
2023/08/24 01:32:18;;;;;;;;;;;;;;;;;;4984929;28;19972;-91
2023/08/24 01:34:44;;;;;;;;;;;;;;;;;;4984195;28;19960;-92
2023/08/24 01:37:16;;;;;;;;;;;;;;;;;;4984152;28;19945;-91
2023/08/24 01:39:43;;;;;;;;;;;;;;;;;;4988781;28;20324;-92
2023/08/24 01:42:08;;;;;;;;;;;;;;;;;;4983566;28;19929;-93
2023/08/24 01:44:34;;;;;;;;;;;;;;;;;;4982507;28;20044;-93
2023/08/24 01:47:03;;;;;;;;;;;;;;;;;;4999694;28;19929;-93
2023/08/24 01:49:29;;;;;;;;;;;;;;;;;;4987131;28;20354;-92
2023/08/24 01:51:55;;;;;;;;;;;;;;;;;;4984555;28;19921;-93
2023/08/24 01:54:21;;;;;;;;;;;;;;;;;;5002621;28;20191;-92
2023/08/24 01:56:47;;;;;;;;;;;;;;;;;;5001398;28;20366;-92
2023/08/24 01:59:13;;;;;;;;;;;;;;;;;;4986954;28;19929;-94
2023/08/24 02:01:39;;;;;;;;;;;;;;;;;;4986735;28;19926;-92
2023/08/24 02:04:05;;;;;;;;;;;;;;;;;;4986551;28;20270;-92
2023/08/24 02:06:31;;;;;;;;;;;;;;;;;;5000132;28;19972;-92
2023/08/24 02:08:57;;;;;;;;;;;;;;;;;;5003185;28;19984;-93
2023/08/24 02:11:22;;;;;;;;;;;;;;;;;;4991080;28;19930;-92
2023/08/24 02:13:48;;;;;;;;;;;;;;;;;;4991279;28;20047;-92
2023/08/24 02:16:14;;;;;;;;;;;;;;;;;;5008044;28;19997;-92
2023/08/24 02:18:43;;;;;;;;;;;;;;;;;;4989520;28;20295;-92
2023/08/24 02:21:11;;;;;;;;;;;;;;;;;;5004570;28;20032;-92
2023/08/24 02:23:37;;;;;;;;;;;;;;;;;;4998009;28;20305;-93
2023/08/24 02:26:04;;;;;;;;;;;;;;;;;;4988102;28;19936;-92
2023/08/24 02:28:29;;;;;;;;;;;;;;;;;;5007352;28;19929;-92
2023/08/24 02:30:55;;;;;;;;;;;;;;;;;;4979926;28;20266;-93
2023/08/24 02:33:22;;;;;;;;;;;;;;;;;;5005130;28;19925;-92
2023/08/24 02:35:48;;;;;;;;;;;;;;;;;;4986855;28;19996;-93
2023/08/24 02:38:14;;;;;;;;;;;;;;;;;;4987209;28;20293;-93
2023/08/24 02:40:40;;;;;;;;;;;;;;;;;;5002115;28;19937;-93
2023/08/24 02:43:09;;;;;;;;;;;;;;;;;;4985121;28;19940;-93
2023/08/24 02:45:38;;;;;;;;;;;;;;;;;;4987403;28;19926;-92
2023/08/24 02:48:04;;;;;;;;;;;;;;;;;;4988499;28;19937;-92
2023/08/24 02:50:30;;;;;;;;;;;;;;;;;;4994035;28;19925;-91
2023/08/24 02:52:57;;;;;;;;;;;;;;;;;;5004834;28;19928;-90
2023/08/24 02:55:23;;;;;;;;;;;;;;;;;;4984541;28;20356;-91
2023/08/24 02:57:52;;;;;;;;;;;;;;;;;;4989893;28;19996;-92
2023/08/24 03:00:18;;;;;;;;;;;;;;;;;;5001503;28;19930;-93
2023/08/24 03:02:44;;;;;;;;;;;;;;;;;;4989704;28;19930;-92
2023/08/24 03:05:10;;;;;;;;;;;;;;;;;;5004066;28;20377;-93
2023/08/24 03:07:36;;;;;;;;;;;;;;;;;;4989191;28;19999;-92
2023/08/24 03:10:03;;;;;;;;;;;;;;;;;;5003943;28;19930;-92
2023/08/24 03:12:29;;;;;;;;;;;;;;;;;;4999186;28;19930;-93
2023/08/24 03:14:55;;;;;;;;;;;;;;;;;;4985682;28;19936;-93
2023/08/24 03:17:21;;;;;;;;;;;;;;;;;;4987949;28;19968;-93
2023/08/24 03:19:47;;;;;;;;;;;;;;;;;;4982966;28;19929;-92
2023/08/24 03:22:13;;;;;;;;;;;;;;;;;;5019591;28;20385;-91
2023/08/24 03:24:39;;;;;;;;;;;;;;;;;;4988096;28;19932;-92
2023/08/24 03:27:05;;;;;;;;;;;;;;;;;;4988518;28;19929;-91
2023/08/24 03:29:30;;;;;;;;;;;;;;;;;;5002085;28;19925;-92
2023/08/24 03:31:59;;;;;;;;;;;;;;;;;;5007502;28;20004;-92
2023/08/24 03:34:27;;;;;;;;;;;;;;;;;;4989520;28;19929;-93
2023/08/24 03:36:53;;;;;;;;;;;;;;;;;;4987888;28;20060;-92
2023/08/24 03:39:18;;;;;;;;;;;;;;;;;;4986430;28;20362;-92
2023/08/24 03:41:44;;;;;;;;;;;;;;;;;;5006686;28;20435;-92
2023/08/24 03:44:11;;;;;;;;;;;;;;;;;;4988845;28;20000;-94
2023/08/24 03:46:36;;;;;;;;;;;;;;;;;;5007690;28;20388;-92
2023/08/24 03:49:02;;;;;;;;;;;;;;;;;;4988442;28;19945;-93
2023/08/24 03:51:28;;;;;;;;;;;;;;;;;;5007716;28;19937;-94
2023/08/24 03:53:54;;;;;;;;;;;;;;;;;;4992589;28;19936;-93
2023/08/24 03:56:20;;;;;;;;;;;;;;;;;;5007860;28;20407;-92
2023/08/24 03:58:46;;;;;;;;;;;;;;;;;;4990230;28;19937;-91
2023/08/24 04:01:12;;;;;;;;;;;;;;;;;;5005635;28;19925;-92
2023/08/24 04:03:38;;;;;;;;;;;;;;;;;;4989952;28;19933;-92
2023/08/24 04:06:04;;;;;;;;;;;;;;;;;;4991021;28;19969;-92
2023/08/24 04:08:30;;;;;;;;;;;;;;;;;;4989939;28;19937;-92
2023/08/24 04:10:56;;;;;;;;;;;;;;;;;;4989231;28;19925;-92
2023/08/24 04:13:22;;;;;;;;;;;;;;;;;;4974382;28;20456;-93
2023/08/24 04:15:48;;;;;;;;;;;;;;;;;;4989942;28;20016;-92
2023/08/24 04:18:14;;;;;;;;;;;;;;;;;;4991392;28;20033;-93
2023/08/24 04:20:40;;;;;;;;;;;;;;;;;;4967616;28;19973;-92
2023/08/24 04:23:06;;;;;;;;;;;;;;;;;;4973849;28;20389;-92
2023/08/24 04:25:32;;;;;;;;;;;;;;;;;;4969066;28;19980;-93
2023/08/24 04:27:58;;;;;;;;;;;;;;;;;;4972223;28;19972;-92
2023/08/24 04:30:23;;;;;;;;;;;;;;;;;;4972930;28;19981;-91
2023/08/24 04:32:50;;;;;;;;;;;;;;;;;;4989173;28;20294;-90
2023/08/24 04:35:16;;;;;;;;;;;;;;;;;;4988480;28;20423;-91
2023/08/24 04:37:42;;;;;;;;;;;;;;;;;;4993579;28;19977;-92
2023/08/24 04:40:08;;;;;;;;;;;;;;;;;;4991616;28;19984;-91
2023/08/24 04:42:34;;;;;;;;;;;;;;;;;;4989044;28;20386;-92
2023/08/24 04:45:00;;;;;;;;;;;;;;;;;;4987956;28;21419;-92
2023/08/24 04:47:26;;;;;;;;;;;;;;;;;;5001419;28;19992;-93
2023/08/24 04:49:58;;;;;;;;;;;;;;;;;;5003854;28;20393;-92
2023/08/24 04:52:24;;;;;;;;;;;;;;;;;;4976527;28;19983;-92
2023/08/24 04:54:50;;;;;;;;;;;;;;;;;;4981970;28;19930;-92
2023/08/24 04:57:16;;;;;;;;;;;;;;;;;;4988196;28;19936;-93
2023/08/24 04:59:42;;;;;;;;;;;;;;;;;;4969321;28;19968;-93
2023/08/24 05:02:08;;;;;;;;;;;;;;;;;;4973563;28;20313;-90
2023/08/24 05:04:34;;;;;;;;;;;;;;;;;;4993381;28;19979;-91
2023/08/24 05:07:00;;;;;;;;;;;;;;;;;;4988750;28;20281;-90
2023/08/24 05:09:25;;;;;;;;;;;;;;;;;;4983553;28;19941;-92
2023/08/24 05:11:52;;;;;;;;;;;;;;;;;;4988669;28;19930;-92
2023/08/24 05:14:18;;;;;;;;;;;;;;;;;;5006786;28;20382;-91
2023/08/24 05:16:43;;;;;;;;;;;;;;;;;;4990897;28;19973;-93
2023/08/24 05:19:09;;;;;;;;;;;;;;;;;;5005924;28;19976;-92
2023/08/24 05:21:35;;;;;;;;;;;;;;;;;;4986601;28;19969;-93
2023/08/24 05:24:03;;;;;;;;;;;;;;;;;;4988418;28;19935;-92
2023/08/24 05:26:29;;;;;;;;;;;;;;;;;;4993477;28;19929;-93
2023/08/24 05:28:55;;;;;;;;;;;;;;;;;;4985321;28;19937;-93
2023/08/24 05:31:21;;;;;;;;;;;;;;;;;;5004460;28;20420;-92
2023/08/24 05:33:47;;;;;;;;;;;;;;;;;;4987520;28;20017;-94
2023/08/24 05:36:14;;;;;;;;;;;;;;;;;;4989424;28;19976;-93
2023/08/24 05:38:44;;;;;;;;;;;;;;;;;;5002255;28;19929;-92
2023/08/24 05:41:10;;;;;;;;;;;;;;;;;;4989457;28;19936;-92
2023/08/24 05:43:36;;;;;;;;;;;;;;;;;;5001069;28;19979;-93
2023/08/24 05:46:03;;;;;;;;;;;;;;;;;;5007814;28;20373;-91
2023/08/24 05:48:29;;;;;;;;;;;;;;;;;;4989699;28;19925;-93
2023/08/24 05:50:54;;;;;;;;;;;;;;;;;;5005304;28;19976;-94
2023/08/24 05:53:20;;;;;;;;;;;;;;;;;;4989881;28;20029;-96
2023/08/24 05:55:46;;;;;;;;;;;;;;;;;;4987530;28;19925;-93
2023/08/24 05:58:13;;;;;;;;;;;;;;;;;;4999794;28;21170;-92
2023/08/24 06:00:39;;;;;;;;;;;;;;;;;;5003654;28;19960;-94
2023/08/24 06:03:05;;;;;;;;;;;;;;;;;;4987323;28;19983;-93
2023/08/24 06:05:38;;;;;;;;;;;;;;;;;;5018312;28;19945;-92
2023/08/24 06:08:04;;;;;;;;;;;;;;;;;;4996644;28;19988;-92
2023/08/24 06:10:30;;;;;;;;;;;;;;;;;;5008832;28;20044;-92
2023/08/24 06:12:57;;;;;;;;;;;;;;;;;;4993332;28;19968;-94
2023/08/24 06:15:26;;;;;;;;;;;;;;;;;;5005710;28;19926;-91
2023/08/24 06:17:52;;;;;;;;;;;;;;;;;;4977062;28;20502;-93
2023/08/24 06:20:18;;;;;;;;;;;;;;;;;;4991053;28;19925;-93
2023/08/24 06:22:44;;;;;;;;;;;;;;;;;;4984601;28;20359;-93
2023/08/24 06:25:10;;;;;;;;;;;;;;;;;;4984290;28;20483;-95
2023/08/24 06:27:36;;;;;;;;;;;;;;;;;;4985014;28;20020;-92
2023/08/24 06:30:03;;;;;;;;;;;;;;;;;;4985224;28;19933;-95
2023/08/24 06:32:29;;;;;;;;;;;;;;;;;;4995164;28;19925;-93
2023/08/24 06:34:55;;;;;;;;;;;;;;;;;;5001526;28;19987;-92
2023/08/24 06:37:21;;;;;;;;;;;;;;;;;;5002146;28;19936;-93
2023/08/24 06:39:47;;;;;;;;;;;;;;;;;;5005403;28;19925;-94
2023/08/24 06:42:13;;;;;;;;;;;;;;;;;;5009609;28;19929;-94
2023/08/24 06:44:39;;;;;;;;;;;;;;;;;;4986546;28;19926;-92
2023/08/24 06:47:05;;;;;;;;;;;;;;;;;;5004529;28;19971;-90
2023/08/24 06:49:31;;;;;;;;;;;;;;;;;;5006965;28;19980;-93
2023/08/24 06:51:57;;;;;;;;;;;;;;;;;;5011237;28;19925;-92
2023/08/24 06:54:23;;;;;;;;;;;;;;;;;;5009956;28;19929;-92
2023/08/24 06:56:49;;;;;;;;;;;;;;;;;;4985005;28;20020;-93
2023/08/24 06:59:15;;;;;;;;;;;;;;;;;;4999451;28;20100;-93
2023/08/24 07:01:41;;;;;;;;;;;;;;;;;;5002226;28;19930;-91
2023/08/24 07:04:10;;;;;;;;;;;;;;;;;;4998721;28;19946;-92
2023/08/24 07:06:36;;;;;;;;;;;;;;;;;;4982579;28;19930;-93
2023/08/24 07:09:07;;;;;;;;;;;;;;;;;;4995398;28;19933;-95
2023/08/24 07:11:35;;;;;;;;;;;;;;;;;;4984148;28;19925;-92
2023/08/24 07:14:04;;;;;;;;;;;;;;;;;;5006611;28;19931;-90
2023/08/24 07:16:30;;;;;;;;;;;;;;;;;;4987120;28;20413;-91
2023/08/24 07:18:56;;;;;;;;;;;;;;;;;;5000747;28;19934;-93
2023/08/24 07:21:22;;;;;;;;;;;;;;;;;;5000090;28;19926;-91
2023/08/24 07:23:48;;;;;;;;;;;;;;;;;;4998859;28;19925;-94
2023/08/24 07:26:20;;;;;;;;;;;;;;;;;;4999631;28;20281;-92
2023/08/24 07:28:46;;;;;;;;;;;;;;;;;;4983147;28;19933;-95
2023/08/24 07:31:12;;;;;;;;;;;;;;;;;;4986187;28;19935;-93
2023/08/24 07:33:45;;;;;;;;;;;;;;;;;;4985189;28;20055;-91
2023/08/24 07:36:14;;;;;;;;;;;;;;;;;;5000995;28;20074;-93
2023/08/24 07:38:40;;;;;;;;;;;;;;;;;;4992712;28;19976;-92
2023/08/24 07:41:11;;;;;;;;;;;;;;;;;;4990379;28;19929;-91
2023/08/24 07:43:37;;;;;;;;;;;;;;;;;;4987499;28;20348;-92
2023/08/24 07:46:06;;;;;;;;;;;;;;;;;;4991025;28;19925;-92
2023/08/24 07:48:32;;;;;;;;;;;;;;;;;;5004396;28;19929;-91
2023/08/24 07:51:00;;;;;;;;;;;;;;;;;;5002119;28;19991;-92
2023/08/24 07:53:26;;;;;;;;;;;;;;;;;;5003683;28;19929;-92
2023/08/24 07:55:52;;;;;;;;;;;;;;;;;;5001675;28;19971;-89
2023/08/24 07:58:18;;;;;;;;;;;;;;;;;;5001188;28;19960;-92
2023/08/24 08:00:44;;;;;;;;;;;;;;;;;;4996210;28;20015;-90
2023/08/24 08:03:10;;;;;;;;;;;;;;;;;;4982049;28;20444;-91
2023/08/24 08:05:36;;;;;;;;;;;;;;;;;;4964049;28;19937;-89
2023/08/24 08:08:04;;;;;;;;;;;;;;;;;;4979577;28;20032;-90
2023/08/24 08:10:30;;;;;;;;;;;;;;;;;;4970397;28;19929;-88
2023/08/24 08:12:56;;;;;;;;;;;;;;;;;;4986356;28;19937;-91
2023/08/24 08:15:22;;;;;;;;;;;;;;;;;;4989008;28;20007;-89
2023/08/24 08:17:49;;;;;;;;;;;;;;;;;;4990942;28;19925;-92
2023/08/24 08:20:15;;;;;;;;;;;;;;;;;;4987001;28;20004;-90
2023/08/24 08:22:45;;;;;;;;;;;;;;;;;;4970071;28;19999;-90
2023/08/24 08:25:12;;;;;;;;;;;;;;;;;;4969300;28;20662;-91
2023/08/24 08:27:38;;;;;;;;;;;;;;;;;;4970443;28;20048;-92
2023/08/24 08:30:04;;;;;;;;;;;;;;;;;;4984547;28;19930;-91
2023/08/24 08:32:30;;;;;;;;;;;;;;;;;;4991941;28;19936;-87
2023/08/24 08:35:04;;;;;;;;;;;;;;;;;;4987158;28;19930;-91
2023/08/24 08:37:30;;;;;;;;;;;;;;;;;;4983961;28;20029;-92
2023/08/24 08:39:56;;;;;;;;;;;;;;;;;;4991534;28;20024;-91
2023/08/24 08:42:21;;;;;;;;;;;;;;;;;;4994064;28;19929;-91
2023/08/24 08:44:47;;;;;;;;;;;;;;;;;;4969440;28;19925;-90
2023/08/24 08:47:13;;;;;;;;;;;;;;;;;;4985918;28;19937;-88
2023/08/24 08:49:39;;;;;;;;;;;;;;;;;;4984041;28;20368;-90
2023/08/24 08:52:05;;;;;;;;;;;;;;;;;;4984401;28;20373;-89
2023/08/24 08:54:32;;;;;;;;;;;;;;;;;;4991309;28;20371;-90
2023/08/24 08:56:59;;;;;;;;;;;;;;;;;;5004830;28;19975;-91
2023/08/24 08:59:29;;;;;;;;;;;;;;;;;;5003167;28;19925;-90
2023/08/24 09:01:54;;;;;;;;;;;;;;;;;;4986828;28;19929;-90
2023/08/24 09:04:20;;;;;;;;;;;;;;;;;;4984051;28;20384;-89
2023/08/24 09:06:46;;;;;;;;;;;;;;;;;;4985024;28;19929;-89
2023/08/24 09:09:12;;;;;;;;;;;;;;;;;;4984084;28;19933;-92
2023/08/24 09:11:39;;;;;;;;;;;;;;;;;;5003047;28;20176;-88
2023/08/24 09:14:05;;;;;;;;;;;;;;;;;;4982974;28;19959;-88
2023/08/24 09:16:31;;;;;;;;;;;;;;;;;;4983724;28;19932;-90
2023/08/24 09:18:57;;;;;;;;;;;;;;;;;;4986119;28;19984;-91
2023/08/24 09:21:26;;;;;;;;;;;;;;;;;;4983496;28;19930;-88
2023/08/24 09:23:52;;;;;;;;;;;;;;;;;;4986195;28;19929;-89
2023/08/24 09:26:18;;;;;;;;;;;;;;;;;;4986056;28;20296;-88
2023/08/24 09:28:44;;;;;;;;;;;;;;;;;;4968272;28;19976;-90
2023/08/24 09:31:10;;;;;;;;;;;;;;;;;;4986577;28;20476;-91
2023/08/24 09:33:36;;;;;;;;;;;;;;;;;;4985486;28;20275;-89
2023/08/24 09:36:04;;;;;;;;;;;;;;;;;;4983568;28;19929;-89
2023/08/24 09:38:30;;;;;;;;;;;;;;;;;;4986161;28;20393;-90
2023/08/24 09:40:56;;;;;;;;;;;;;;;;;;4986192;28;19932;-89
2023/08/24 09:43:22;;;;;;;;;;;;;;;;;;4984940;28;20457;-92
2023/08/24 09:45:48;;;;;;;;;;;;;;;;;;4983272;28;20583;-90
2023/08/24 09:48:14;;;;;;;;;;;;;;;;;;4983238;28;20003;-88
2023/08/24 09:50:40;;;;;;;;;;;;;;;;;;4986319;28;19929;-90
2023/08/24 09:53:06;;;;;;;;;;;;;;;;;;4988166;28;19933;-88
2023/08/24 09:55:32;;;;;;;;;;;;;;;;;;4983592;28;19930;-90
2023/08/24 09:58:00;;;;;;;;;;;;;;;;;;5000532;28;19929;-91
2023/08/24 10:00:26;;;;;;;;;;;;;;;;;;4983352;28;19937;-89
2023/08/24 10:02:53;;;;;;;;;;;;;;;;;;4977384;28;19929;-89
2023/08/24 10:05:20;;;;;;;;;;;;;;;;;;4984728;28;19929;-89
2023/08/24 10:07:49;;;;;;;;;;;;;;;;;;4985974;28;20460;-91
2023/08/24 10:10:15;;;;;;;;;;;;;;;;;;5003500;28;19937;-89
2023/08/24 10:12:41;;;;;;;;;;;;;;;;;;5000448;28;19929;-90
2023/08/24 10:15:07;;;;;;;;;;;;;;;;;;5005822;28;19929;-89
2023/08/24 10:17:36;;;;;;;;;;;;;;;;;;5001742;28;19930;-89
2023/08/24 10:20:05;;;;;;;;;;;;;;;;;;5000772;28;19929;-91
2023/08/24 10:22:31;;;;;;;;;;;;;;;;;;5007199;28;20301;-90
2023/08/24 10:24:57;;;;;;;;;;;;;;;;;;4982482;28;19968;-90
2023/08/24 10:27:24;;;;;;;;;;;;;;;;;;4984291;28;20412;-91
2023/08/24 10:29:50;;;;;;;;;;;;;;;;;;4984654;28;19929;-91
2023/08/24 10:32:15;;;;;;;;;;;;;;;;;;5000474;28;20329;-91
2023/08/24 10:34:41;;;;;;;;;;;;;;;;;;5000623;28;20068;-91
2023/08/24 10:37:07;;;;;;;;;;;;;;;;;;4998457;28;20367;-91
2023/08/24 10:39:35;;;;;;;;;;;;;;;;;;5005985;28;20122;-91
2023/08/24 10:42:01;;;;;;;;;;;;;;;;;;4999256;28;20144;-91
2023/08/24 10:44:27;;;;;;;;;;;;;;;;;;5002934;28;19929;-89
2023/08/24 10:46:52;;;;;;;;;;;;;;;;;;4985617;28;20256;-90
2023/08/24 10:49:20;;;;;;;;;;;;;;;;;;5000965;28;22076;-90
2023/08/24 10:51:49;;;;;;;;;;;;;;;;;;5008130;28;20020;-89
2023/08/24 10:54:15;;;;;;;;;;;;;;;;;;4999033;28;20015;-90
2023/08/24 10:56:44;;;;;;;;;;;;;;;;;;5001926;28;19929;-92
2023/08/24 10:59:10;;;;;;;;;;;;;;;;;;5002201;28;20169;-91
2023/08/24 11:01:36;;;;;;;;;;;;;;;;;;4985053;28;19936;-91
2023/08/24 11:04:02;;;;;;;;;;;;;;;;;;4984276;28;19926;-91
2023/08/24 11:06:33;;;;;;;;;;;;;;;;;;4991898;28;19945;-90
2023/08/24 11:08:59;;;;;;;;;;;;;;;;;;4986300;28;19952;-92
2023/08/24 11:11:25;;;;;;;;;;;;;;;;;;4987435;28;20489;-90
2023/08/24 11:13:51;;;;;;;;;;;;;;;;;;4982606;28;19929;-90
2023/08/24 11:16:17;;;;;;;;;;;;;;;;;;4982282;28;19929;-91
2023/08/24 11:18:43;;;;;;;;;;;;;;;;;;4967053;28;19952;-88
2023/08/24 11:21:12;;;;;;;;;;;;;;;;;;4980908;28;19965;-91
2023/08/24 11:23:40;;;;;;;;;;;;;;;;;;5002896;28;20024;-91
2023/08/24 11:26:06;;;;;;;;;;;;;;;;;;4981971;28;20297;-90
2023/08/24 11:28:32;;;;;;;;;;;;;;;;;;4982856;28;19930;-89
2023/08/24 11:30:58;;;;;;;;;;;;;;;;;;4968985;28;19926;-90
2023/08/24 11:33:28;;;;;;;;;;;;;;;;;;4984110;28;20389;-90
2023/08/24 11:35:54;;;;;;;;;;;;;;;;;;4983093;28;20419;-90
2023/08/24 11:38:20;;;;;;;;;;;;;;;;;;4983833;28;19929;-90
2023/08/24 11:40:48;;;;;;;;;;;;;;;;;;4983159;28;20416;-91
2023/08/24 11:43:14;;;;;;;;;;;;;;;;;;4983312;28;19929;-89
2023/08/24 11:45:42;;;;;;;;;;;;;;;;;;4983848;28;19929;-91
2023/08/24 11:48:09;;;;;;;;;;;;;;;;;;4989077;28;19930;-90
2023/08/24 11:50:35;;;;;;;;;;;;;;;;;;4987102;28;19929;-92
2023/08/24 11:53:01;;;;;;;;;;;;;;;;;;4984400;28;20056;-88
2023/08/24 11:55:27;;;;;;;;;;;;;;;;;;4989484;28;20341;-92
2023/08/24 11:57:53;;;;;;;;;;;;;;;;;;4985347;28;20051;-90
2023/08/24 12:00:19;;;;;;;;;;;;;;;;;;4984982;28;19937;-91
2023/08/24 12:02:45;;;;;;;;;;;;;;;;;;4976261;28;20027;-91
2023/08/24 12:05:11;;;;;;;;;;;;;;;;;;5001886;28;19933;-89
2023/08/24 12:07:37;;;;;;;;;;;;;;;;;;5006192;28;19928;-90
2023/08/24 12:10:03;;;;;;;;;;;;;;;;;;4986987;28;20111;-89
2023/08/24 12:12:29;;;;;;;;;;;;;;;;;;5003482;28;20347;-89
2023/08/24 12:14:55;;;;;;;;;;;;;;;;;;4987995;28;20389;-90
2023/08/24 12:17:21;;;;;;;;;;;;;;;;;;4998605;28;19929;-90
2023/08/24 12:19:46;;;;;;;;;;;;;;;;;;4986536;28;19928;-90
2023/08/24 12:22:12;;;;;;;;;;;;;;;;;;5006714;28;19936;-89
2023/08/24 12:24:38;;;;;;;;;;;;;;;;;;4997993;28;19929;-90
2023/08/24 12:27:05;;;;;;;;;;;;;;;;;;4986378;28;20111;-89
2023/08/24 12:29:31;;;;;;;;;;;;;;;;;;4986612;28;19926;-91
2023/08/24 12:31:58;;;;;;;;;;;;;;;;;;5003769;28;20406;-90
2023/08/24 12:34:24;;;;;;;;;;;;;;;;;;5003966;28;20036;-92
2023/08/24 12:36:50;;;;;;;;;;;;;;;;;;5001989;28;20033;-90
2023/08/24 12:39:15;;;;;;;;;;;;;;;;;;5001269;28;20012;-89
2023/08/24 12:41:41;;;;;;;;;;;;;;;;;;5004460;28;19925;-90
2023/08/24 12:44:07;;;;;;;;;;;;;;;;;;5002286;28;19929;-90
2023/08/24 12:46:34;;;;;;;;;;;;;;;;;;5007447;28;19936;-90
2023/08/24 12:49:00;;;;;;;;;;;;;;;;;;5002578;28;19925;-91
2023/08/24 12:51:29;;;;;;;;;;;;;;;;;;5010066;28;19929;-91
2023/08/24 12:53:55;;;;;;;;;;;;;;;;;;5006289;28;20915;-89
2023/08/24 12:56:21;;;;;;;;;;;;;;;;;;5002503;28;19929;-88
2023/08/24 12:58:47;;;;;;;;;;;;;;;;;;4989770;28;19951;-91
2023/08/24 13:01:13;;;;;;;;;;;;;;;;;;5007618;28;20525;-91
2023/08/24 13:03:39;;;;;;;;;;;;;;;;;;5006655;28;19988;-89
2023/08/24 13:06:05;;;;;;;;;;;;;;;;;;4993374;28;19965;-89
2023/08/24 13:08:34;;;;;;;;;;;;;;;;;;5008969;28;19989;-90
2023/08/24 13:11:02;;;;;;;;;;;;;;;;;;4993625;28;19955;-89
2023/08/24 13:13:28;;;;;;;;;;;;;;;;;;5009154;28;19926;-90
2023/08/24 13:15:57;;;;;;;;;;;;;;;;;;4986817;28;19936;-89
2023/08/24 13:18:26;;;;;;;;;;;;;;;;;;5025480;28;19925;-89
2023/08/24 13:20:52;;;;;;;;;;;;;;;;;;5002805;28;19925;-90
2023/08/24 13:23:18;;;;;;;;;;;;;;;;;;5004756;28;20305;-90
2023/08/24 13:25:44;;;;;;;;;;;;;;;;;;5003145;28;19929;-90
2023/08/24 13:28:10;;;;;;;;;;;;;;;;;;4985854;28;20297;-91
2023/08/24 13:30:36;;;;;;;;;;;;;;;;;;4984788;28;19929;-89
2023/08/24 13:33:02;;;;;;;;;;;;;;;;;;5002726;28;19940;-90
2023/08/24 13:35:28;;;;;;;;;;;;;;;;;;5003415;28;19929;-90
2023/08/24 13:37:54;;;;;;;;;;;;;;;;;;5000074;28;19930;-91
2023/08/24 13:40:20;;;;;;;;;;;;;;;;;;4983680;28;20008;-90
2023/08/24 13:42:49;;;;;;;;;;;;;;;;;;4988357;28;20376;-91
2023/08/24 13:45:15;;;;;;;;;;;;;;;;;;5003120;28;20407;-91
2023/08/24 13:47:41;;;;;;;;;;;;;;;;;;4984685;28;20341;-90
2023/08/24 13:50:07;;;;;;;;;;;;;;;;;;5001304;28;20398;-91
2023/08/24 13:52:36;;;;;;;;;;;;;;;;;;5008804;28;19928;-91
2023/08/24 13:55:03;;;;;;;;;;;;;;;;;;5019905;28;20192;-90
2023/08/24 13:57:29;;;;;;;;;;;;;;;;;;5002175;28;19929;-91
2023/08/24 13:59:56;;;;;;;;;;;;;;;;;;5004013;28;20118;-90
2023/08/24 14:02:22;;;;;;;;;;;;;;;;;;5004642;28;19935;-90
2023/08/24 14:04:47;;;;;;;;;;;;;;;;;;5001230;28;19929;-90
2023/08/24 14:07:13;;;;;;;;;;;;;;;;;;5007537;28;20379;-89
2023/08/24 14:09:39;;;;;;;;;;;;;;;;;;5003315;28;20357;-90
2023/08/24 14:12:05;;;;;;;;;;;;;;;;;;4999573;28;19968;-91
2023/08/24 14:14:31;;;;;;;;;;;;;;;;;;5001821;28;20364;-89
2023/08/24 14:16:57;;;;;;;;;;;;;;;;;;5002008;28;19972;-90
2023/08/24 14:19:23;;;;;;;;;;;;;;;;;;5000342;28;19932;-92
2023/08/24 14:21:49;;;;;;;;;;;;;;;;;;5002191;28;19929;-92
2023/08/24 14:24:15;;;;;;;;;;;;;;;;;;4999244;28;20386;-90
2023/08/24 14:26:45;;;;;;;;;;;;;;;;;;4985019;28;19929;-91
2023/08/24 14:29:11;;;;;;;;;;;;;;;;;;4983767;28;20027;-89
2023/08/24 14:31:37;;;;;;;;;;;;;;;;;;5005952;28;19969;-89
2023/08/24 14:34:03;;;;;;;;;;;;;;;;;;5000233;28;20352;-89
2023/08/24 14:36:29;;;;;;;;;;;;;;;;;;5023292;28;19935;-89
2023/08/24 14:38:54;;;;;;;;;;;;;;;;;;5002052;28;19929;-89
2023/08/24 14:41:20;;;;;;;;;;;;;;;;;;5000590;28;20073;-91
2023/08/24 14:43:46;;;;;;;;;;;;;;;;;;4999408;28;19979;-89
2023/08/24 14:46:18;;;;;;;;;;;;;;;;;;5000948;28;19933;-90
2023/08/24 14:48:44;;;;;;;;;;;;;;;;;;4999175;28;19930;-91
2023/08/24 14:51:10;;;;;;;;;;;;;;;;;;4999435;28;19930;-90
2023/08/24 14:53:38;;;;;;;;;;;;;;;;;;5003067;28;20182;-90
2023/08/24 14:56:04;;;;;;;;;;;;;;;;;;5001953;28;20364;-90
2023/08/24 14:58:30;;;;;;;;;;;;;;;;;;5001133;28;19940;-91
2023/08/24 15:00:56;;;;;;;;;;;;;;;;;;4997486;28;19933;-90
2023/08/24 15:03:22;;;;;;;;;;;;;;;;;;4999755;28;20255;-90
2023/08/24 15:05:48;;;;;;;;;;;;;;;;;;5000502;28;19991;-90
2023/08/24 15:08:14;;;;;;;;;;;;;;;;;;4998384;28;19936;-91
2023/08/24 15:10:40;;;;;;;;;;;;;;;;;;4983783;28;19937;-92
2023/08/24 15:13:06;;;;;;;;;;;;;;;;;;4998920;28;19932;-91
2023/08/24 15:15:32;;;;;;;;;;;;;;;;;;5001765;28;20321;-92
2023/08/24 15:17:58;;;;;;;;;;;;;;;;;;4999503;28;19934;-90
2023/08/24 15:20:24;;;;;;;;;;;;;;;;;;5001506;28;20266;-88
2023/08/24 15:22:50;;;;;;;;;;;;;;;;;;5003708;28;20012;-89
2023/08/24 15:25:22;;;;;;;;;;;;;;;;;;5002753;28;19925;-89
2023/08/24 15:27:48;;;;;;;;;;;;;;;;;;4978631;28;19944;-89
2023/08/24 15:30:14;;;;;;;;;;;;;;;;;;4990302;28;20068;-89
2023/08/24 15:32:40;;;;;;;;;;;;;;;;;;4986805;28;20024;-89
2023/08/24 15:35:11;;;;;;;;;;;;;;;;;;5005502;28;19925;-89
2023/08/24 15:37:39;;;;;;;;;;;;;;;;;;5005897;28;20011;-90
2023/08/24 15:40:05;;;;;;;;;;;;;;;;;;5004492;28;19936;-89
2023/08/24 15:42:31;;;;;;;;;;;;;;;;;;5012461;28;19929;-89
2023/08/24 15:44:57;;;;;;;;;;;;;;;;;;5000070;28;20396;-90
2023/08/24 15:47:23;;;;;;;;;;;;;;;;;;4985435;28;19936;-90
2023/08/24 15:49:49;;;;;;;;;;;;;;;;;;4999120;28;20334;-89
2023/08/24 15:52:14;;;;;;;;;;;;;;;;;;5021005;28;19939;-90
2023/08/24 15:54:41;;;;;;;;;;;;;;;;;;4988397;28;19933;-90
2023/08/24 15:57:08;;;;;;;;;;;;;;;;;;4982514;28;19995;-90
2023/08/24 15:59:34;;;;;;;;;;;;;;;;;;4999273;28;19957;-90
2023/08/24 16:02:04;;;;;;;;;;;;;;;;;;5000131;28;20389;-90
2023/08/24 16:04:30;;;;;;;;;;;;;;;;;;4982842;28;19941;-90
2023/08/24 16:06:56;;;;;;;;;;;;;;;;;;4971188;28;19923;-91
2023/08/24 16:09:22;;;;;;;;;;;;;;;;;;5000524;28;19929;-91
2023/08/24 16:11:48;;;;;;;;;;;;;;;;;;4986731;28;19925;-92
2023/08/24 16:14:14;;;;;;;;;;;;;;;;;;4988617;28;19936;-91
2023/08/24 16:16:43;;;;;;;;;;;;;;;;;;5002266;28;19941;-89
2023/08/24 16:19:09;;;;;;;;;;;;;;;;;;4987168;28;19976;-91
2023/08/24 16:21:39;;;;;;;;;;;;;;;;;;4986670;28;20433;-90
2023/08/24 16:24:07;;;;;;;;;;;;;;;;;;4988187;28;19937;-92
2023/08/24 16:26:33;;;;;;;;;;;;;;;;;;4984161;28;19936;-90
2023/08/24 16:28:59;;;;;;;;;;;;;;;;;;5007107;28;19909;-95
2023/08/24 16:31:28;;;;;;;;;;;;;;;;;;4996771;28;19930;-95
2023/08/24 16:33:54;;;;;;;;;;;;;;;;;;4996669;28;19933;-96
2023/08/24 16:36:23;;;;;;;;;;;;;;;;;;5027833;28;19926;-96
2023/08/24 16:38:52;;;;;;;;;;;;;;;;;;4993394;28;19926;-95
2023/08/24 16:41:18;;;;;;;;;;;;;;;;;;5001717;28;19933;-96